DLH2RW EDDF-LKPR
Flight info
| Callsign | DLH2RW |
|---|---|
| Flight time | 0h 49m |
| Altitude | 29000 |
| Route | SULUS7S SULUS Z650 TONSU Z35 ODOMO DCT LOMKI LOMKI8T |
| Aircraft | A321/M-SDE2E3FGIJ1LORWXYZ/HB1 |
Departure
| Time | 2026-04-15 14:01 |
|---|---|
| Airport | Frankfurt Main Airport (EDDF) |
Arrival
| Time | 2026-04-15 14:51 |
|---|---|
| Airport | Václav Havel Airport Prague (LKPR) |
| Time | Latitude | Longitude | Altitude | Speed | Heading |
|---|---|---|---|---|---|
| 2026-04-15 13:30 | 50.04852 | 8.56946 | 362 ft | 0 kts | 295° |
| 2026-04-15 13:45 | 50.04852 | 8.56947 | 383 ft | 0 kts | 295° |
| 2026-04-15 13:47 | 50.04850 | 8.56951 | 384 ft | 3 kts | 295° |
| 2026-04-15 13:47 | 50.04837 | 8.56987 | 358 ft | 4 kts | 296° |
| 2026-04-15 13:48 | 50.04827 | 8.57024 | 359 ft | 4 kts | 275° |
| 2026-04-15 13:48 | 50.04832 | 8.57059 | 361 ft | 4 kts | 218° |
| 2026-04-15 13:48 | 50.04838 | 8.57066 | 359 ft | 2 kts | 205° |
| 2026-04-15 13:48 | 50.04815 | 8.57051 | 361 ft | 2 kts | 202° |
| 2026-04-15 13:51 | 50.04813 | 8.57049 | 360 ft | 1 kts | 203° |
| 2026-04-15 13:51 | 50.04800 | 8.57040 | 357 ft | 3 kts | 205° |
| 2026-04-15 13:52 | 50.04768 | 8.57017 | 360 ft | 7 kts | 205° |
| 2026-04-15 13:52 | 50.04717 | 8.56979 | 358 ft | 10 kts | 205° |
| 2026-04-15 13:52 | 50.04648 | 8.56930 | 362 ft | 12 kts | 203° |
| 2026-04-15 13:52 | 50.04561 | 8.56892 | 359 ft | 14 kts | 192° |
| 2026-04-15 13:53 | 50.04467 | 8.56845 | 362 ft | 14 kts | 218° |
| 2026-04-15 13:53 | 50.04422 | 8.56703 | 359 ft | 16 kts | 250° |
| 2026-04-15 13:53 | 50.04382 | 8.56537 | 359 ft | 17 kts | 250° |
| 2026-04-15 13:53 | 50.04339 | 8.56357 | 360 ft | 18 kts | 250° |
| 2026-04-15 13:54 | 50.04293 | 8.56163 | 359 ft | 20 kts | 250° |
| 2026-04-15 13:54 | 50.04244 | 8.55957 | 361 ft | 21 kts | 249° |
| 2026-04-15 13:54 | 50.04191 | 8.55739 | 358 ft | 22 kts | 249° |
| 2026-04-15 13:54 | 50.04136 | 8.55509 | 359 ft | 23 kts | 249° |
| 2026-04-15 13:55 | 50.04079 | 8.55268 | 363 ft | 24 kts | 250° |
| 2026-04-15 13:55 | 50.04019 | 8.55018 | 359 ft | 25 kts | 249° |
| 2026-04-15 13:55 | 50.03958 | 8.54765 | 359 ft | 25 kts | 250° |
| 2026-04-15 13:55 | 50.03896 | 8.54506 | 361 ft | 26 kts | 250° |
| 2026-04-15 13:56 | 50.03831 | 8.54306 | 362 ft | 20 kts | 234° |
| 2026-04-15 13:56 | 50.03772 | 8.54106 | 360 ft | 20 kts | 250° |
| 2026-04-15 13:56 | 50.03723 | 8.53900 | 357 ft | 21 kts | 249° |
| 2026-04-15 13:56 | 50.03672 | 8.53687 | 360 ft | 21 kts | 250° |
| 2026-04-15 13:57 | 50.03620 | 8.53479 | 361 ft | 21 kts | 248° |
| 2026-04-15 13:57 | 50.03567 | 8.53259 | 360 ft | 22 kts | 250° |
| 2026-04-15 13:57 | 50.03512 | 8.53028 | 361 ft | 21 kts | 249° |
| 2026-04-15 13:57 | 50.03462 | 8.52834 | 358 ft | 18 kts | 246° |
| 2026-04-15 13:58 | 50.03434 | 8.52729 | 361 ft | 0 kts | 249° |
| 2026-04-15 13:58 | 50.03434 | 8.52727 | 365 ft | 1 kts | 249° |
| 2026-04-15 13:58 | 50.03429 | 8.52707 | 362 ft | 3 kts | 249° |
| 2026-04-15 13:59 | 50.03415 | 8.52656 | 363 ft | 7 kts | 242° |
| 2026-04-15 13:59 | 50.03364 | 8.52596 | 361 ft | 12 kts | 194° |
| 2026-04-15 13:59 | 50.03325 | 8.52594 | 361 ft | 0 kts | 179° |
| 2026-04-15 14:00 | 50.03324 | 8.52594 | 358 ft | 1 kts | 179° |
| 2026-04-15 14:00 | 50.03203 | 8.52596 | 357 ft | 53 kts | 179° |
| 2026-04-15 14:01 | 50.01488 | 8.52608 | 402 ft | 178 kts | 180° |
| 2026-04-15 14:01 | 50.00220 | 8.52600 | 982 ft | 186 kts | 180° |
| 2026-04-15 14:01 | 49.98905 | 8.52579 | 1715 ft | 192 kts | 180° |
| 2026-04-15 14:02 | 49.97501 | 8.52635 | 2029 ft | 212 kts | 169° |
| 2026-04-15 14:02 | 49.96188 | 8.53770 | 2502 ft | 224 kts | 130° |
| 2026-04-15 14:02 | 49.95416 | 8.55893 | 3298 ft | 227 kts | 116° |
| 2026-04-15 14:02 | 49.94710 | 8.58066 | 4076 ft | 231 kts | 118° |
| 2026-04-15 14:03 | 49.94029 | 8.60381 | 4937 ft | 235 kts | 104° |
| 2026-04-15 14:03 | 49.93910 | 8.62992 | 5327 ft | 257 kts | 91° |
| 2026-04-15 14:03 | 49.93850 | 8.65844 | 5902 ft | 269 kts | 96° |
| 2026-04-15 14:03 | 49.93374 | 8.68663 | 6628 ft | 274 kts | 118° |
| 2026-04-15 14:04 | 49.92271 | 8.71067 | 7350 ft | 276 kts | 136° |
| 2026-04-15 14:04 | 49.90748 | 8.72917 | 8045 ft | 280 kts | 146° |
| 2026-04-15 14:04 | 49.89154 | 8.74689 | 8776 ft | 285 kts | 140° |
| 2026-04-15 14:04 | 49.87873 | 8.77064 | 9526 ft | 291 kts | 123° |
| 2026-04-15 14:05 | 49.86905 | 8.79858 | 10240 ft | 296 kts | 119° |
| 2026-04-15 14:05 | 49.85899 | 8.82728 | 10589 ft | 314 kts | 121° |
| 2026-04-15 14:05 | 49.84784 | 8.85782 | 10830 ft | 333 kts | 121° |
| 2026-04-15 14:05 | 49.83620 | 8.88929 | 11381 ft | 339 kts | 121° |
| 2026-04-15 14:06 | 49.82438 | 8.92126 | 12040 ft | 343 kts | 121° |
| 2026-04-15 14:06 | 49.81248 | 8.95349 | 12700 ft | 347 kts | 121° |
| 2026-04-15 14:06 | 49.80049 | 8.98607 | 13374 ft | 350 kts | 121° |
| 2026-04-15 14:06 | 49.78840 | 9.01903 | 14019 ft | 354 kts | 121° |
| 2026-04-15 14:07 | 49.77622 | 9.05242 | 14599 ft | 358 kts | 120° |
| 2026-04-15 14:07 | 49.76457 | 9.08670 | 15178 ft | 362 kts | 114° |
| 2026-04-15 14:07 | 49.75681 | 9.12395 | 15744 ft | 366 kts | 104° |
| 2026-04-15 14:07 | 49.75082 | 9.16239 | 16325 ft | 369 kts | 104° |
| 2026-04-15 14:08 | 49.74475 | 9.20064 | 16908 ft | 373 kts | 104° |
| 2026-04-15 14:08 | 49.73838 | 9.24020 | 17486 ft | 376 kts | 105° |
| 2026-04-15 14:08 | 49.73202 | 9.27908 | 18037 ft | 380 kts | 105° |
| 2026-04-15 14:08 | 49.72550 | 9.31884 | 18571 ft | 383 kts | 105° |
| 2026-04-15 14:09 | 49.71894 | 9.35895 | 19039 ft | 387 kts | 105° |
| 2026-04-15 14:09 | 49.71233 | 9.39938 | 19511 ft | 390 kts | 105° |
| 2026-04-15 14:09 | 49.70565 | 9.44016 | 20011 ft | 393 kts | 105° |
| 2026-04-15 14:09 | 49.69891 | 9.48122 | 20479 ft | 396 kts | 104° |
| 2026-04-15 14:10 | 49.69212 | 9.52262 | 20957 ft | 399 kts | 104° |
| 2026-04-15 14:10 | 49.68529 | 9.56426 | 21425 ft | 402 kts | 104° |
| 2026-04-15 14:10 | 49.67840 | 9.60623 | 21878 ft | 405 kts | 103° |
| 2026-04-15 14:10 | 49.67404 | 9.64928 | 22311 ft | 408 kts | 93° |
| 2026-04-15 14:11 | 49.67469 | 9.69312 | 22753 ft | 410 kts | 82° |
| 2026-04-15 14:11 | 49.68029 | 9.73628 | 23195 ft | 412 kts | 73° |
| 2026-04-15 14:11 | 49.68793 | 9.77906 | 23634 ft | 414 kts | 73° |
| 2026-04-15 14:11 | 49.69558 | 9.82207 | 24014 ft | 417 kts | 73° |
| 2026-04-15 14:12 | 49.70326 | 9.86535 | 24391 ft | 419 kts | 73° |
| 2026-04-15 14:12 | 49.71107 | 9.90883 | 24767 ft | 421 kts | 71° |
| 2026-04-15 14:12 | 49.72197 | 9.95072 | 25135 ft | 421 kts | 61° |
| 2026-04-15 14:12 | 49.73712 | 9.98931 | 25535 ft | 420 kts | 52° |
| 2026-04-15 14:13 | 49.75421 | 10.02599 | 25951 ft | 421 kts | 52° |
| 2026-04-15 14:13 | 49.77129 | 10.06282 | 26341 ft | 423 kts | 52° |
| 2026-04-15 14:13 | 49.78842 | 10.09990 | 26700 ft | 425 kts | 52° |
| 2026-04-15 14:13 | 49.80563 | 10.13724 | 27067 ft | 427 kts | 52° |
| 2026-04-15 14:14 | 49.82269 | 10.17429 | 27424 ft | 429 kts | 51° |
| 2026-04-15 14:14 | 49.84004 | 10.21195 | 27798 ft | 430 kts | 51° |
| 2026-04-15 14:14 | 49.85744 | 10.24976 | 28165 ft | 432 kts | 51° |
| 2026-04-15 14:14 | 49.87492 | 10.28779 | 28525 ft | 434 kts | 51° |
| 2026-04-15 14:15 | 49.89244 | 10.32601 | 28885 ft | 436 kts | 51° |
| 2026-04-15 14:15 | 49.91001 | 10.36442 | 29171 ft | 438 kts | 51° |
| 2026-04-15 14:15 | 49.92740 | 10.40259 | 29232 ft | 425 kts | 51° |
| 2026-04-15 14:15 | 49.94410 | 10.43943 | 29216 ft | 412 kts | 51° |
| 2026-04-15 14:16 | 49.96053 | 10.47566 | 29217 ft | 409 kts | 51° |
| 2026-04-15 14:16 | 49.99332 | 10.54775 | 29222 ft | 407 kts | 51° |
| 2026-04-15 14:17 | 50.02587 | 10.61949 | 29217 ft | 406 kts | 51° |
| 2026-04-15 14:17 | 50.05348 | 10.69630 | 29217 ft | 413 kts | 69° |
| 2026-04-15 14:17 | 50.05962 | 10.74022 | 29218 ft | 419 kts | 81° |
| 2026-04-15 14:18 | 50.05982 | 10.78564 | 29215 ft | 423 kts | 94° |
| 2026-04-15 14:18 | 50.05386 | 10.83063 | 29215 ft | 426 kts | 105° |
| 2026-04-15 14:18 | 50.04462 | 10.87447 | 29212 ft | 427 kts | 106° |
| 2026-04-15 14:19 | 50.02598 | 10.96218 | 29207 ft | 427 kts | 106° |
| 2026-04-15 14:19 | 50.00747 | 11.04933 | 29222 ft | 427 kts | 105° |
| 2026-04-15 14:20 | 49.98875 | 11.13705 | 29221 ft | 428 kts | 106° |
| 2026-04-15 14:20 | 49.97154 | 11.22520 | 29219 ft | 425 kts | 97° |
| 2026-04-15 14:21 | 49.96699 | 11.31595 | 29211 ft | 421 kts | 89° |
| 2026-04-15 14:21 | 49.96419 | 11.40690 | 29212 ft | 422 kts | 89° |
| 2026-04-15 14:22 | 49.96120 | 11.49785 | 29233 ft | 421 kts | 89° |
| 2026-04-15 14:22 | 49.95812 | 11.58863 | 29239 ft | 420 kts | 89° |
| 2026-04-15 14:23 | 49.95505 | 11.67922 | 29241 ft | 420 kts | 89° |
| 2026-04-15 14:23 | 49.95200 | 11.76967 | 29238 ft | 419 kts | 89° |
| 2026-04-15 14:24 | 49.94880 | 11.86015 | 29232 ft | 419 kts | 90° |
| 2026-04-15 14:24 | 49.94546 | 11.95051 | 29248 ft | 419 kts | 89° |
| 2026-04-15 14:25 | 49.94335 | 12.04068 | 29241 ft | 417 kts | 88° |
| 2026-04-15 14:25 | 49.94190 | 12.13072 | 29240 ft | 417 kts | 88° |
| 2026-04-15 14:26 | 49.94023 | 12.22066 | 29239 ft | 417 kts | 88° |
| 2026-04-15 14:26 | 49.93816 | 12.30998 | 29237 ft | 417 kts | 88° |
| 2026-04-15 14:27 | 49.93588 | 12.40050 | 29253 ft | 417 kts | 88° |
| 2026-04-15 14:27 | 49.93329 | 12.48986 | 29252 ft | 416 kts | 89° |
| 2026-04-15 14:28 | 49.93068 | 12.57964 | 29246 ft | 416 kts | 89° |
| 2026-04-15 14:28 | 49.92799 | 12.66929 | 29253 ft | 416 kts | 89° |
| 2026-04-15 14:28 | 49.92664 | 12.71385 | 29078 ft | 411 kts | 89° |
| 2026-04-15 14:29 | 49.92528 | 12.75772 | 28652 ft | 405 kts | 89° |
| 2026-04-15 14:29 | 49.92393 | 12.80105 | 28235 ft | 399 kts | 89° |
| 2026-04-15 14:29 | 49.92258 | 12.84372 | 27836 ft | 394 kts | 89° |
| 2026-04-15 14:29 | 49.92124 | 12.88593 | 27425 ft | 389 kts | 89° |
| 2026-04-15 14:30 | 49.91992 | 12.92756 | 27031 ft | 383 kts | 89° |
| 2026-04-15 14:30 | 49.91860 | 12.96866 | 26626 ft | 379 kts | 90° |
| 2026-04-15 14:30 | 49.91725 | 13.00919 | 26255 ft | 374 kts | 90° |
| 2026-04-15 14:30 | 49.91591 | 13.04930 | 25861 ft | 370 kts | 90° |
| 2026-04-15 14:31 | 49.91457 | 13.08897 | 25471 ft | 366 kts | 90° |
| 2026-04-15 14:31 | 49.91323 | 13.12815 | 25077 ft | 363 kts | 90° |
| 2026-04-15 14:31 | 49.91188 | 13.16707 | 24680 ft | 360 kts | 91° |
| 2026-04-15 14:31 | 49.91054 | 13.20566 | 24285 ft | 357 kts | 91° |
| 2026-04-15 14:32 | 49.90920 | 13.24401 | 23892 ft | 354 kts | 91° |
| 2026-04-15 14:32 | 49.90787 | 13.28192 | 23451 ft | 351 kts | 91° |
| 2026-04-15 14:32 | 49.90652 | 13.31965 | 23042 ft | 347 kts | 91° |
| 2026-04-15 14:32 | 49.90515 | 13.35670 | 22641 ft | 343 kts | 91° |
| 2026-04-15 14:33 | 49.90380 | 13.39358 | 22246 ft | 340 kts | 91° |
| 2026-04-15 14:33 | 49.90297 | 13.41769 | 21985 ft | 337 kts | 90° |
| 2026-04-15 14:33 | 49.90434 | 13.45371 | 21595 ft | 333 kts | 78° |
| 2026-04-15 14:33 | 49.91302 | 13.49882 | 21081 ft | 328 kts | 64° |
| 2026-04-15 14:34 | 49.92421 | 13.52932 | 20696 ft | 324 kts | 52° |
| 2026-04-15 14:34 | 49.93791 | 13.55699 | 20310 ft | 323 kts | 51° |
| 2026-04-15 14:34 | 49.95162 | 13.58452 | 19935 ft | 322 kts | 51° |
| 2026-04-15 14:34 | 49.96080 | 13.60309 | 19682 ft | 321 kts | 51° |
| 2026-04-15 14:35 | 49.97433 | 13.63052 | 19291 ft | 319 kts | 51° |
| 2026-04-15 14:35 | 49.98782 | 13.65790 | 18927 ft | 318 kts | 51° |
| 2026-04-15 14:35 | 50.00122 | 13.68516 | 18545 ft | 317 kts | 52° |
| 2026-04-15 14:35 | 50.01442 | 13.71203 | 18139 ft | 316 kts | 52° |
| 2026-04-15 14:36 | 50.02768 | 13.73903 | 17765 ft | 314 kts | 52° |
| 2026-04-15 14:36 | 50.04092 | 13.76594 | 17389 ft | 312 kts | 52° |
| 2026-04-15 14:36 | 50.05409 | 13.79276 | 17018 ft | 311 kts | 52° |
| 2026-04-15 14:36 | 50.06691 | 13.81973 | 16641 ft | 310 kts | 57° |
| 2026-04-15 14:37 | 50.07655 | 13.84957 | 16265 ft | 309 kts | 69° |
| 2026-04-15 14:37 | 50.08197 | 13.88180 | 15888 ft | 308 kts | 80° |
| 2026-04-15 14:37 | 50.08557 | 13.91460 | 15507 ft | 306 kts | 79° |
| 2026-04-15 14:37 | 50.08930 | 13.94719 | 15128 ft | 305 kts | 79° |
| 2026-04-15 14:38 | 50.09305 | 13.97965 | 14755 ft | 304 kts | 79° |
| 2026-04-15 14:38 | 50.09678 | 14.01206 | 14375 ft | 303 kts | 79° |
| 2026-04-15 14:38 | 50.10047 | 14.04434 | 14004 ft | 302 kts | 79° |
| 2026-04-15 14:38 | 50.10409 | 14.07645 | 13609 ft | 300 kts | 79° |
| 2026-04-15 14:39 | 50.10767 | 14.10837 | 13237 ft | 298 kts | 79° |
| 2026-04-15 14:39 | 50.11119 | 14.14006 | 12869 ft | 296 kts | 79° |
| 2026-04-15 14:39 | 50.11468 | 14.17147 | 12504 ft | 294 kts | 79° |
| 2026-04-15 14:39 | 50.11813 | 14.20239 | 11946 ft | 299 kts | 79° |
| 2026-04-15 14:40 | 50.12177 | 14.23506 | 11531 ft | 298 kts | 79° |
| 2026-04-15 14:40 | 50.12530 | 14.26680 | 11160 ft | 296 kts | 79° |
| 2026-04-15 14:40 | 50.12881 | 14.29840 | 10794 ft | 295 kts | 79° |
| 2026-04-15 14:40 | 50.13229 | 14.32974 | 10427 ft | 293 kts | 79° |
| 2026-04-15 14:41 | 50.13498 | 14.36109 | 10057 ft | 291 kts | 89° |
| 2026-04-15 14:41 | 50.13294 | 14.39225 | 9678 ft | 288 kts | 104° |
| 2026-04-15 14:41 | 50.12594 | 14.42113 | 9323 ft | 284 kts | 119° |
| 2026-04-15 14:41 | 50.11489 | 14.44638 | 8969 ft | 280 kts | 128° |
| 2026-04-15 14:42 | 50.10327 | 14.47007 | 8635 ft | 278 kts | 128° |
| 2026-04-15 14:42 | 50.09163 | 14.49388 | 8282 ft | 275 kts | 128° |
| 2026-04-15 14:42 | 50.08010 | 14.51751 | 7937 ft | 273 kts | 128° |
| 2026-04-15 14:42 | 50.06866 | 14.54100 | 7596 ft | 271 kts | 128° |
| 2026-04-15 14:43 | 50.05734 | 14.56431 | 7260 ft | 269 kts | 128° |
| 2026-04-15 14:43 | 50.04604 | 14.58754 | 6888 ft | 268 kts | 128° |
| 2026-04-15 14:43 | 50.03492 | 14.61036 | 6765 ft | 258 kts | 128° |
| 2026-04-15 14:43 | 50.02436 | 14.63199 | 6618 ft | 245 kts | 128° |
| 2026-04-15 14:44 | 50.01371 | 14.65246 | 6224 ft | 241 kts | 138° |
| 2026-04-15 14:44 | 49.99920 | 14.66407 | 5935 ft | 231 kts | 172° |
| 2026-04-15 14:44 | 49.98399 | 14.66168 | 5777 ft | 216 kts | 202° |
| 2026-04-15 14:44 | 49.97260 | 14.64773 | 5476 ft | 210 kts | 237° |
| 2026-04-15 14:45 | 49.96706 | 14.62686 | 5125 ft | 210 kts | 253° |
| 2026-04-15 14:45 | 49.96325 | 14.60513 | 5003 ft | 210 kts | 255° |
| 2026-04-15 14:45 | 49.95967 | 14.58298 | 5009 ft | 213 kts | 259° |
| 2026-04-15 14:45 | 49.95969 | 14.56015 | 5008 ft | 213 kts | 281° |
| 2026-04-15 14:46 | 49.96515 | 14.53946 | 5003 ft | 201 kts | 303° |
| 2026-04-15 14:46 | 49.97338 | 14.52244 | 5000 ft | 195 kts | 306° |
| 2026-04-15 14:46 | 49.98151 | 14.50582 | 4825 ft | 193 kts | 306° |
| 2026-04-15 14:46 | 49.98959 | 14.48926 | 4587 ft | 190 kts | 307° |
| 2026-04-15 14:47 | 49.99737 | 14.47332 | 4354 ft | 179 kts | 307° |
| 2026-04-15 14:47 | 50.00473 | 14.45821 | 4109 ft | 173 kts | 307° |
| 2026-04-15 14:47 | 50.01192 | 14.44345 | 3877 ft | 171 kts | 307° |
| 2026-04-15 14:47 | 50.01907 | 14.42877 | 3648 ft | 169 kts | 307° |
| 2026-04-15 14:48 | 50.02616 | 14.41420 | 3426 ft | 169 kts | 307° |
| 2026-04-15 14:48 | 50.03312 | 14.39988 | 3194 ft | 166 kts | 307° |
| 2026-04-15 14:48 | 50.03988 | 14.38597 | 2975 ft | 158 kts | 307° |
| 2026-04-15 14:48 | 50.04630 | 14.37277 | 2769 ft | 150 kts | 307° |
| 2026-04-15 14:49 | 50.05251 | 14.35997 | 2572 ft | 146 kts | 307° |
| 2026-04-15 14:49 | 50.05863 | 14.34736 | 2376 ft | 146 kts | 307° |
| 2026-04-15 14:49 | 50.06472 | 14.33483 | 2129 ft | 145 kts | 307° |
| 2026-04-15 14:49 | 50.07079 | 14.32235 | 1904 ft | 144 kts | 307° |
| 2026-04-15 14:50 | 50.07688 | 14.30997 | 1683 ft | 143 kts | 308° |
| 2026-04-15 14:50 | 50.08284 | 14.29754 | 1520 ft | 143 kts | 306° |
| 2026-04-15 14:50 | 50.08871 | 14.28518 | 1323 ft | 141 kts | 308° |
| 2026-04-15 14:50 | 50.09452 | 14.27320 | 1213 ft | 130 kts | 309° |
| 2026-04-15 14:51 | 50.09918 | 14.26363 | 1198 ft | 87 kts | 307° |
| 2026-04-15 14:51 | 50.10184 | 14.25821 | 1187 ft | 38 kts | 308° |
| 2026-04-15 14:51 | 50.10327 | 14.25671 | 1185 ft | 24 kts | 343° |
| 2026-04-15 14:51 | 50.10465 | 14.25680 | 1182 ft | 15 kts | 31° |
| 2026-04-15 14:52 | 50.10497 | 14.25833 | 1175 ft | 17 kts | 79° |
| 2026-04-15 14:52 | 50.10517 | 14.26002 | 1174 ft | 14 kts | 79° |
| 2026-04-15 14:52 | 50.10545 | 14.26112 | 1171 ft | 11 kts | 49° |
| 2026-04-15 14:52 | 50.10598 | 14.26175 | 1173 ft | 8 kts | 34° |
| 2026-04-15 14:53 | 50.10623 | 14.26201 | 1169 ft | 2 kts | 34° |
| 2026-04-15 14:53 | 50.10626 | 14.26205 | 1169 ft | 0 kts | 34° |